West Lakeland, Minnesota
Current Conditions -  °F | °C
As of 12:11 AM on Saturday 29 Nov 2014 (Local Time) from K21D Reporting Station
Clear Clear  
Wind Chill: 18°   Ceiling: Unl
Heat Index: 25°   Visibility: 10mi
Dew Point: 21°   Wind: 6mph
Humidity: 86%   Direction: 140°SE
Pressure: 29.68"   Gusts: NA
Location:  45.0713°N, 92.8375°W
Report Text: K21D 290611Z AUTO 14005KT 10SM CLR M04/M06 A2968 RMK AO2
Loading
Personal Weather Stations






























Interactive Weather Map New forecast layout! Learn more

10-Day Weather Forecast

Advertisements
Track Severe Weather on mobile